createdAt,value
2022-08-22T00:00:19.367Z,100276.00
2022-08-22T00:02:47.157Z,100261.60
2022-08-22T00:02:48.773Z,100240.40
2022-08-22T00:02:55.671Z,100267.20
2022-08-22T00:03:09.503Z,100274.80
2022-08-22T00:05:54.215Z,100274.00
2022-08-22T00:11:40.739Z,100274.20
2022-08-22T00:17:17.843Z,100269.00
2022-08-22T00:22:35.524Z,100275.80
2022-08-22T00:27:56.689Z,100279.00
2022-08-22T00:33:11.696Z,100280.60
2022-08-22T00:38:29.428Z,100281.20
2022-08-22T00:44:28.435Z,100283.40
2022-08-22T00:49:31.890Z,100294.00
2022-08-22T00:54:35.216Z,100289.40
2022-08-22T00:59:56.638Z,100293.00
2022-08-22T01:05:22.233Z,100293.00
2022-08-22T01:11:09.615Z,100300.60
2022-08-22T01:16:56.410Z,100295.20
2022-08-22T01:22:37.082Z,100294.60
2022-08-22T01:28:24.379Z,100297.00
2022-08-22T01:33:34.653Z,100297.80
2022-08-22T01:38:59.567Z,100297.20
2022-08-22T01:44:13.528Z,100297.60
2022-08-22T01:49:29.948Z,100294.60
2022-08-22T01:54:39.995Z,100300.60
2022-08-22T01:59:55.617Z,100299.20
2022-08-22T02:05:32.208Z,100301.00
2022-08-22T02:11:03.986Z,100302.60
2022-08-22T02:16:20.773Z,100303.80
2022-08-22T02:22:20.549Z,100306.80
2022-08-22T02:27:32.267Z,100314.80
2022-08-22T02:32:41.533Z,100308.60
2022-08-22T02:38:16.358Z,100315.00
2022-08-22T02:43:49.664Z,100315.00
2022-08-22T02:48:53.089Z,100307.00
2022-08-22T02:54:38.078Z,100310.80
2022-08-22T03:00:31.313Z,100310.80
2022-08-22T03:05:38.666Z,100312.40
2022-08-22T03:11:03.686Z,100305.60
2022-08-22T03:16:22.355Z,100311.80
2022-08-22T03:21:46.045Z,100319.80
2022-08-22T03:27:32.384Z,100327.00
2022-08-22T03:32:55.850Z,100326.80
2022-08-22T03:38:20.561Z,100332.80
2022-08-22T03:44:33.404Z,100334.60
2022-08-22T03:50:14.356Z,100337.00
2022-08-22T03:56:13.748Z,100339.60
2022-08-22T04:02:03.415Z,100332.40
2022-08-22T04:08:26.118Z,100328.00
2022-08-22T04:13:59.721Z,100334.20
2022-08-22T04:19:33.136Z,100335.80
2022-08-22T04:24:52.368Z,100336.80
2022-08-22T04:30:34.747Z,100343.60
2022-08-22T04:36:10.505Z,100346.40
2022-08-22T04:41:49.164Z,100350.80
2022-08-22T04:47:02.814Z,100350.60
2022-08-22T04:52:22.407Z,100348.60
2022-08-22T04:57:52.264Z,100352.40
2022-08-22T05:02:58.215Z,100357.00
2022-08-22T05:08:06.686Z,100362.20
2022-08-22T05:13:23.892Z,100361.80
2022-08-22T05:18:35.077Z,100365.60
2022-08-22T05:23:53.525Z,100373.00
2022-08-22T05:29:03.920Z,100374.60
2022-08-22T05:34:20.708Z,100373.40
2022-08-22T05:39:28.337Z,100378.40
2022-08-22T05:44:38.158Z,100379.40
2022-08-22T05:50:06.711Z,100379.40
2022-08-22T05:55:32.671Z,100382.80
2022-08-22T06:00:43.113Z,100375.60
2022-08-22T06:05:53.359Z,100377.60
2022-08-22T06:11:02.576Z,100391.20
2022-08-22T06:16:17.866Z,100386.40
2022-08-22T06:21:38.600Z,100385.00
2022-08-22T06:26:48.892Z,100386.80
2022-08-22T06:31:52.887Z,100391.20
2022-08-22T06:36:59.067Z,100387.80
2022-08-22T06:42:16.937Z,100384.80
2022-08-22T06:47:28.321Z,100395.00
2022-08-22T06:52:39.210Z,100386.00
2022-08-22T06:57:44.567Z,100395.80
2022-08-22T07:02:58.835Z,100403.20
2022-08-22T07:08:16.393Z,100401.40
2022-08-22T07:13:20.615Z,100409.60
2022-08-22T07:18:28.740Z,100409.20
2022-08-22T07:23:48.332Z,100413.00
2022-08-22T07:29:11.722Z,100417.60
2022-08-22T07:34:42.777Z,100417.80
2022-08-22T07:40:15.865Z,100418.00
2022-08-22T07:45:32.330Z,100419.60
2022-08-22T07:50:51.794Z,100426.60
2022-08-22T07:55:58.273Z,100437.20
2022-08-22T08:01:02.839Z,100430.80
2022-08-22T08:06:08.976Z,100430.00
2022-08-22T08:11:16.205Z,100429.60
2022-08-22T08:16:26.581Z,100432.20
2022-08-22T08:21:39.626Z,100433.80
2022-08-22T08:27:10.988Z,100431.40
2022-08-22T08:32:14.846Z,100429.80
2022-08-22T08:37:29.125Z,100429.60
2022-08-22T08:43:10.942Z,100422.40
2022-08-22T08:48:27.623Z,100428.40
2022-08-22T08:54:05.573Z,100429.00
2022-08-22T08:59:44.263Z,100426.80
2022-08-22T09:05:16.493Z,100423.40
2022-08-22T09:10:39.546Z,100416.80
2022-08-22T09:16:10.025Z,100415.60
2022-08-22T09:21:44.771Z,100414.20
2022-08-22T09:26:57.217Z,100402.40
2022-08-22T09:32:16.113Z,100413.80
2022-08-22T09:37:53.832Z,100428.20
2022-08-22T09:43:21.590Z,100430.80
2022-08-22T09:48:43.801Z,100433.80
2022-08-22T09:54:08.727Z,100428.20
2022-08-22T09:59:23.604Z,100428.40
2022-08-22T10:04:38.797Z,100430.20
2022-08-22T10:10:04.429Z,100427.20
2022-08-22T10:15:32.217Z,100432.20
2022-08-22T10:21:00.732Z,100432.20
2022-08-22T10:26:37.921Z,100444.80
2022-08-22T10:31:59.450Z,100446.80
2022-08-22T10:37:39.622Z,100438.20
2022-08-22T10:42:59.385Z,100434.80
2022-08-22T10:48:08.963Z,100436.80
2022-08-22T10:53:36.981Z,100444.60
2022-08-22T10:58:56.562Z,100441.40
2022-08-22T11:04:40.333Z,100444.00
2022-08-22T11:09:45.023Z,100445.00
2022-08-22T11:15:04.842Z,100441.20
2022-08-22T11:20:22.937Z,100430.80
2022-08-22T11:25:41.606Z,100436.80
2022-08-22T11:31:36.735Z,100449.40
2022-08-22T11:37:17.830Z,100453.20
2022-08-22T11:42:33.626Z,100441.80
2022-08-22T11:48:07.869Z,100438.40
2022-08-22T11:54:11.250Z,100453.20
2022-08-22T11:59:43.041Z,100456.40
2022-08-22T12:05:01.901Z,100450.80
2022-08-22T12:10:18.063Z,100447.40
2022-08-22T12:15:53.928Z,100453.80
2022-08-22T12:21:42.366Z,100450.60
2022-08-22T12:27:27.929Z,100445.60
2022-08-22T12:33:13.218Z,100453.60
2022-08-22T12:38:38.639Z,100455.80
2022-08-22T12:43:56.070Z,100455.60
2022-08-22T12:49:08.293Z,100450.80
2022-08-22T12:54:27.276Z,100446.20
2022-08-22T12:59:42.659Z,100450.20
2022-08-22T13:05:03.391Z,100449.40
2022-08-22T13:10:17.593Z,100445.20
2022-08-22T13:15:41.857Z,100438.00
2022-08-22T13:20:50.649Z,100431.20
2022-08-22T13:26:09.911Z,100438.00
2022-08-22T13:31:36.206Z,100440.80
2022-08-22T13:36:51.902Z,100437.80
2022-08-22T13:42:00.733Z,100441.40
2022-08-22T13:47:14.769Z,100442.40
2022-08-22T13:52:31.771Z,100439.20
2022-08-22T13:57:43.306Z,100437.20
2022-08-22T14:03:13.191Z,100442.20
2022-08-22T14:08:26.143Z,100433.20
2022-08-22T14:13:55.993Z,100422.80
2022-08-22T14:19:24.482Z,100426.00
2022-08-22T14:24:55.546Z,100425.60
2022-08-22T14:30:09.249Z,100427.20
2022-08-22T14:35:34.560Z,100428.40
2022-08-22T14:40:42.240Z,100428.60
2022-08-22T14:45:57.732Z,100422.80
2022-08-22T14:51:17.637Z,100424.60
2022-08-22T14:56:28.523Z,100422.40
2022-08-22T15:02:00.708Z,100428.00
2022-08-22T15:07:05.766Z,100427.60
2022-08-22T15:12:34.277Z,100436.00
2022-08-22T15:17:45.065Z,100433.60
2022-08-22T15:22:52.788Z,100424.00
2022-08-22T15:28:17.142Z,100421.60
2022-08-22T15:33:35.949Z,100418.80
2022-08-22T15:38:48.323Z,100418.00
2022-08-22T15:44:08.131Z,100424.60
2022-08-22T15:49:21.210Z,100421.40
2022-08-22T15:54:42.655Z,100388.80
2022-08-22T16:00:00.273Z,100395.40
2022-08-22T16:05:09.345Z,100399.40
2022-08-22T16:10:24.845Z,100420.00
2022-08-22T16:15:57.743Z,100402.60
2022-08-22T16:21:05.973Z,100402.80
2022-08-22T16:26:12.421Z,100416.40
2022-08-22T16:31:43.048Z,100419.40
2022-08-22T16:37:18.311Z,100421.00
2022-08-22T16:42:27.260Z,100428.60
2022-08-22T16:47:30.725Z,100423.60
2022-08-22T16:53:02.031Z,100434.00
2022-08-22T16:58:23.432Z,100430.20
2022-08-22T17:04:29.510Z,100437.00
2022-08-22T17:09:50.804Z,100435.00
2022-08-22T17:15:25.189Z,100450.20
2022-08-22T17:20:44.876Z,100445.80
2022-08-22T17:26:28.227Z,100458.00
2022-08-22T17:32:05.438Z,100461.00
2022-08-22T17:37:41.540Z,100456.40
2022-08-22T17:43:22.200Z,100457.40
2022-08-22T17:48:50.395Z,100467.00
2022-08-22T17:54:13.125Z,100467.80
2022-08-22T17:59:20.686Z,100471.40
2022-08-22T18:04:47.505Z,100467.60
2022-08-22T18:10:17.580Z,100474.40
2022-08-22T18:15:33.686Z,100490.40
2022-08-22T18:20:53.144Z,100497.00
2022-08-22T18:26:47.073Z,100493.00
2022-08-22T18:32:28.785Z,100501.60
2022-08-22T18:37:35.327Z,100504.80
2022-08-22T18:43:14.316Z,100507.80
2022-08-22T18:48:59.220Z,100505.60
2022-08-22T18:54:05.293Z,100503.60
2022-08-22T18:59:41.159Z,100496.40
2022-08-22T19:05:10.330Z,100506.20
2022-08-22T19:10:41.235Z,100498.00
2022-08-22T19:16:27.655Z,100492.20
2022-08-22T19:21:55.648Z,100502.20
2022-08-22T19:27:11.352Z,100490.20
2022-08-22T19:32:50.398Z,100486.00
2022-08-22T19:38:03.029Z,100486.20
2022-08-22T19:43:37.177Z,100492.00
2022-08-22T19:48:50.591Z,100488.00
2022-08-22T19:54:16.481Z,100484.80
2022-08-22T19:59:50.683Z,100487.80
2022-08-22T20:05:17.446Z,100498.20
2022-08-22T20:10:40.728Z,100504.20
2022-08-22T20:16:05.651Z,100500.40
2022-08-22T20:21:08.992Z,100499.80
2022-08-22T20:26:16.063Z,100497.60
2022-08-22T20:31:27.247Z,100491.80
2022-08-22T20:36:31.899Z,100491.60
2022-08-22T20:41:45.658Z,100489.60
2022-08-22T20:46:53.431Z,100487.80
2022-08-22T20:52:12.149Z,100487.60
2022-08-22T20:57:20.077Z,100488.60
2022-08-22T21:02:40.890Z,100483.40
2022-08-22T21:07:48.186Z,100478.20
2022-08-22T21:13:25.383Z,100470.20
2022-08-22T21:18:35.671Z,100474.80
2022-08-22T21:23:43.488Z,100472.60
2022-08-22T21:28:49.700Z,100476.00
2022-08-22T21:33:55.924Z,100468.20
2022-08-22T21:39:12.978Z,100463.00
2022-08-22T21:44:37.284Z,100449.40
2022-08-22T21:50:00.561Z,100448.60
2022-08-22T21:55:26.708Z,100441.80
2022-08-22T22:00:58.753Z,100432.00
2022-08-22T22:06:05.831Z,100435.40
2022-08-22T22:11:15.056Z,100434.40
2022-08-22T22:16:26.868Z,100433.20
2022-08-22T22:21:30.234Z,100427.20
2022-08-22T22:26:33.545Z,100414.20
2022-08-22T22:31:37.399Z,100417.60
2022-08-22T22:36:43.028Z,100414.00
2022-08-22T22:41:46.793Z,100417.60
2022-08-22T22:46:50.198Z,100429.20
2022-08-22T22:51:53.618Z,100428.40
2022-08-22T22:56:58.669Z,100421.60
2022-08-22T23:02:07.816Z,100418.20
2022-08-22T23:07:14.978Z,100415.00
2022-08-22T23:12:18.676Z,100406.20
2022-08-22T23:17:25.735Z,100404.80
2022-08-22T23:22:30.479Z,100404.60
2022-08-22T23:27:34.306Z,100389.40
2022-08-22T23:32:38.444Z,100388.40
2022-08-22T23:37:41.917Z,100388.80
2022-08-22T23:42:45.362Z,100391.80
2022-08-22T23:47:49.392Z,100384.20
2022-08-22T23:52:52.808Z,100395.40
2022-08-22T23:57:56.323Z,100386.20
